createdAt,value
2022-11-27T10:00:30.521Z,6.37
2022-11-27T10:05:26.841Z,7.27
2022-11-27T10:10:34.652Z,6.13
2022-11-27T10:15:38.543Z,8.00
2022-11-27T10:20:40.057Z,7.07
2022-11-27T10:25:41.088Z,10.40
2022-11-27T10:30:40.862Z,10.63
2022-11-27T10:35:34.578Z,12.10
2022-11-27T10:40:32.672Z,6.00
2022-11-27T10:45:31.200Z,6.00
2022-11-27T10:50:26.697Z,4.37
2022-11-27T10:55:29.913Z,4.53
2022-11-27T11:00:25.217Z,4.73
2022-11-27T11:05:45.047Z,3.20
2022-11-27T11:10:45.044Z,4.13
2022-11-27T11:15:51.952Z,4.83
2022-11-27T11:20:48.673Z,6.07
2022-11-27T11:25:52.112Z,3.47
2022-11-27T11:30:58.696Z,4.40
2022-11-27T11:35:57.957Z,4.40
2022-11-27T11:41:02.691Z,5.80
2022-11-27T11:45:57.354Z,3.87
2022-11-27T11:50:56.006Z,3.63
2022-11-27T11:56:05.190Z,5.20
2022-11-27T12:01:26.617Z,4.30
2022-11-27T12:06:35.869Z,5.77
2022-11-27T12:11:40.062Z,6.82
2022-11-27T12:16:43.305Z,6.05
2022-11-27T12:21:45.449Z,4.47
2022-11-27T12:26:51.945Z,4.43
2022-11-27T12:32:15.844Z,3.47
2022-11-27T12:37:23.648Z,4.97
2022-11-27T12:42:25.556Z,3.93
2022-11-27T12:47:24.515Z,5.05
2022-11-27T12:52:20.659Z,4.03
2022-11-27T12:57:20.390Z,8.05
2022-11-27T13:02:28.214Z,12.80
2022-11-27T13:07:30.020Z,3.63
2022-11-27T13:12:30.945Z,4.03
2022-11-27T13:17:31.328Z,4.97
2022-11-27T13:22:32.322Z,4.50
2022-11-27T13:27:29.556Z,3.47
2022-11-27T13:32:25.349Z,4.10
2022-11-27T13:37:31.384Z,4.57
2022-11-27T13:42:28.773Z,7.03
2022-11-27T13:47:27.603Z,5.80
2022-11-27T13:52:22.866Z,6.47
2022-11-27T13:57:18.795Z,4.70
2022-11-27T14:02:14.067Z,8.50
2022-11-27T14:07:11.856Z,7.53
2022-11-27T14:12:19.911Z,8.30
2022-11-27T14:17:27.632Z,6.40
2022-11-27T14:22:44.318Z,8.13
2022-11-27T14:27:51.212Z,6.93
2022-11-27T14:32:49.185Z,8.30
2022-11-27T14:37:43.512Z,7.70
2022-11-27T14:42:39.326Z,9.37
2022-11-27T14:47:34.463Z,11.90
2022-11-27T14:52:29.956Z,12.57
2022-11-27T14:57:26.724Z,16.57
2022-11-27T15:02:27.567Z,28.13
2022-11-27T15:07:26.932Z,22.73
2022-11-27T15:12:24.482Z,27.63
2022-11-27T15:17:22.770Z,30.70
2022-11-27T15:22:18.690Z,23.80
2022-11-27T15:27:19.960Z,25.07
2022-11-27T15:32:23.705Z,24.63
2022-11-27T15:37:24.224Z,19.07
2022-11-27T15:42:18.912Z,19.03
2022-11-27T15:47:25.288Z,15.47
2022-11-27T15:52:19.078Z,21.27
2022-11-27T15:57:13.051Z,19.40
2022-11-27T16:02:06.844Z,14.70
2022-11-27T16:07:01.992Z,11.67
2022-11-27T16:11:55.624Z,26.10
2022-11-27T16:16:49.198Z,15.90
2022-11-27T16:21:43.667Z,23.17
2022-11-27T16:26:39.555Z,21.10
2022-11-27T16:31:33.466Z,18.23
2022-11-27T16:36:29.673Z,17.63
2022-11-27T16:41:25.322Z,19.77
2022-11-27T16:46:23.920Z,21.97
2022-11-27T16:51:20.124Z,19.93
2022-11-27T16:56:15.856Z,22.90
2022-11-27T17:01:10.682Z,16.60
2022-11-27T17:06:10.740Z,17.13
2022-11-27T17:11:09.593Z,18.03
2022-11-27T17:16:03.621Z,36.47
2022-11-27T17:21:02.929Z,46.60
